Quezon City, Philippines
Current Conditions -  °F | °C
As of 9:00 AM on Thursday 23 Oct 2014 (Local Time) from RPLL Reporting Station
Rain Showers Rain Showers  
Wind Chill: 81°   Ceiling: 9000
Heat Index: 88°   Visibility: 6mi
Dew Point: 79°   Wind: 9mph
Humidity: 94%   Direction: 10°N
Pressure: 29.91"   Gusts: NA
Location:  14.66°N, 121.07°E
Report Text: RPLL 230100Z 01008KT 350V050 9999 -SHRA FEW020CB SCT023 OVC090 27/26 Q1013 TEMPO 9000 SHRA RMK A2991 CB N
Loading
Personal Weather Stations






























Interactive Weather Map
Tropical Storm Tracking
New forecast layout! Learn more

10-Day Weather Forecast

Advertisements
Track Severe Weather on mobile